Time;durP1;ratioP1;P1;durP2;ratioP2;P2;SDS_P1;SDS_P2;PMS_P1;PMS_P2;Temp;Humidity;BMP_temperature;BMP_pressure;BME280_temperature;BME280_humidity;BME280_pressure;Samples;Min_cycle;Max_cycle;Signal;HPM_P1;HPM_P2
2020/12/25 00:00:07;;;;;;;23.90;13.07;;;5.30;99.90;;;;;;4987096;28;20078;-80
2020/12/25 00:02:36;;;;;;;22.10;12.88;;;5.30;99.90;;;;;;4996165;28;20046;-80
2020/12/25 00:05:02;;;;;;;20.52;12.35;;;5.20;99.90;;;;;;4989584;28;20112;-80
2020/12/25 00:07:29;;;;;;;21.45;12.85;;;5.20;99.90;;;;;;4994922;28;20073;-79
2020/12/25 00:09:55;;;;;;;19.55;12.82;;;5.30;99.90;;;;;;4994182;28;20078;-81
2020/12/25 00:12:22;;;;;;;19.73;12.82;;;5.30;99.90;;;;;;4991601;28;20114;-79
2020/12/25 00:14:49;;;;;;;21.13;13.32;;;5.30;99.90;;;;;;4979427;28;20081;-79
2020/12/25 00:17:15;;;;;;;17.95;12.65;;;5.30;99.90;;;;;;4993077;28;20427;-80
2020/12/25 00:19:42;;;;;;;18.60;12.32;;;5.30;99.90;;;;;;4986940;28;20078;-81
2020/12/25 00:22:08;;;;;;;18.70;12.80;;;5.30;99.90;;;;;;4983613;28;20054;-81
2020/12/25 00:24:38;;;;;;;17.73;10.40;;;5.30;99.90;;;;;;4993827;28;20062;-80
2020/12/25 00:27:04;;;;;;;18.73;10.45;;;5.30;99.90;;;;;;4988434;28;20446;-79
2020/12/25 00:29:30;;;;;;;21.77;10.63;;;5.30;99.90;;;;;;4981287;28;20081;-79
2020/12/25 00:31:57;;;;;;;17.63;10.10;;;5.30;99.90;;;;;;4991906;28;20074;-81
2020/12/25 00:34:24;;;;;;;18.42;9.23;;;5.40;99.90;;;;;;4990482;28;20350;-78
2020/12/25 00:36:50;;;;;;;17.73;10.88;;;5.40;99.90;;;;;;4982978;28;20129;-80
2020/12/25 00:39:18;;;;;;;18.58;10.35;;;5.40;99.90;;;;;;4990756;28;20137;-80
2020/12/25 00:41:46;;;;;;;18.60;10.07;;;5.40;99.90;;;;;;4989310;28;20192;-80
2020/12/25 00:44:12;;;;;;;17.08;10.57;;;5.40;99.90;;;;;;4987849;28;20125;-79
2020/12/25 00:46:40;;;;;;;20.63;10.80;;;5.40;99.90;;;;;;4988885;28;20494;-79
2020/12/25 00:49:07;;;;;;;18.30;10.40;;;5.40;99.90;;;;;;4988743;28;20092;-80
2020/12/25 00:51:34;;;;;;;24.83;13.48;;;5.40;99.90;;;;;;4990456;28;20073;-79
2020/12/25 00:54:01;;;;;;;20.30;11.95;;;5.50;99.90;;;;;;4990739;28;20133;-80
2020/12/25 00:56:27;;;;;;;21.02;11.95;;;5.40;99.90;;;;;;5001723;28;20110;-81
2020/12/25 00:58:54;;;;;;;20.77;11.68;;;5.50;99.90;;;;;;5001552;28;20077;-80
2020/12/25 01:01:20;;;;;;;21.67;11.40;;;5.50;99.90;;;;;;4999531;28;20345;-78
2020/12/25 01:03:47;;;;;;;20.63;11.23;;;5.50;99.90;;;;;;4998124;28;20093;-79
2020/12/25 01:06:15;;;;;;;20.90;11.43;;;5.50;99.90;;;;;;5001421;28;20092;-79
2020/12/25 01:08:43;;;;;;;19.85;10.57;;;5.50;99.90;;;;;;5000988;28;20137;-79
2020/12/25 01:11:10;;;;;;;22.38;10.30;;;5.50;99.90;;;;;;5001858;28;20453;-79
2020/12/25 01:13:37;;;;;;;17.17;10.68;;;5.50;99.90;;;;;;5003289;28;20076;-79
2020/12/25 01:16:04;;;;;;;19.67;10.65;;;5.50;99.90;;;;;;5001686;28;20093;-79
2020/12/25 01:18:30;;;;;;;19.95;11.05;;;5.50;99.90;;;;;;5001093;28;20120;-80
2020/12/25 01:20:57;;;;;;;22.38;11.68;;;5.50;99.90;;;;;;5001927;28;20059;-77
2020/12/25 01:23:24;;;;;;;23.52;12.63;;;5.50;99.90;;;;;;5002431;28;20097;-79
2020/12/25 01:25:50;;;;;;;20.58;10.52;;;5.40;99.90;;;;;;5003913;28;20090;-79
2020/12/25 01:28:17;;;;;;;19.58;11.05;;;5.40;99.90;;;;;;5005435;28;20486;-78
2020/12/25 01:30:44;;;;;;;16.92;11.30;;;5.30;99.90;;;;;;5006551;28;20074;-79
2020/12/25 01:33:10;;;;;;;18.65;10.85;;;5.30;99.90;;;;;;5004328;28;20110;-79
2020/12/25 01:35:37;;;;;;;22.30;10.55;;;5.20;99.90;;;;;;5005168;28;20081;-79
2020/12/25 01:38:05;;;;;;;17.90;10.68;;;5.30;99.90;;;;;;5000635;28;20515;-80
2020/12/25 01:40:33;;;;;;;15.77;9.57;;;5.30;99.90;;;;;;4998499;28;20054;-79
2020/12/25 01:42:59;;;;;;;22.27;10.20;;;5.30;99.90;;;;;;4997796;28;20129;-78
2020/12/25 01:45:26;;;;;;;18.58;11.38;;;5.40;99.90;;;;;;4998603;28;20050;-79
2020/12/25 01:47:54;;;;;;;17.00;10.43;;;5.30;99.90;;;;;;4996833;28;20305;-78
2020/12/25 01:50:22;;;;;;;19.88;10.65;;;5.20;99.90;;;;;;4996966;28;20050;-78
2020/12/25 01:52:50;;;;;;;17.33;9.75;;;5.20;99.90;;;;;;4999362;28;20129;-79
2020/12/25 01:55:18;;;;;;;15.50;9.05;;;5.20;99.90;;;;;;5000268;28;20089;-79
2020/12/25 01:57:45;;;;;;;14.68;9.13;;;5.20;99.90;;;;;;4998490;28;20137;-79
2020/12/25 02:00:12;;;;;;;12.73;8.38;;;5.20;99.90;;;;;;5001903;28;20086;-79
2020/12/25 02:02:38;;;;;;;14.20;7.88;;;5.20;99.90;;;;;;5002465;28;20078;-79
2020/12/25 02:05:04;;;;;;;12.85;7.80;;;5.10;99.90;;;;;;4996290;28;20078;-79
2020/12/25 02:07:31;;;;;;;11.27;7.43;;;5.00;99.90;;;;;;4995261;28;20558;-79
2020/12/25 02:09:58;;;;;;;12.93;7.72;;;5.00;99.90;;;;;;4995382;28;20133;-78
2020/12/25 02:12:24;;;;;;;16.05;7.53;;;5.00;99.90;;;;;;4994552;28;20574;-79
2020/12/25 02:14:52;;;;;;;14.13;7.47;;;5.00;99.90;;;;;;4997263;28;20133;-78
2020/12/25 02:17:18;;;;;;;12.00;7.65;;;5.00;99.90;;;;;;4995294;28;20115;-79
2020/12/25 02:19:44;;;;;;;11.50;6.93;;;4.90;99.90;;;;;;4995640;28;20573;-79
2020/12/25 02:22:12;;;;;;;10.20;6.90;;;5.00;99.90;;;;;;4994804;28;20559;-78
2020/12/25 02:24:38;;;;;;;13.20;7.57;;;5.00;99.90;;;;;;4995368;28;20125;-78
2020/12/25 02:27:04;;;;;;;12.65;7.18;;;5.00;99.90;;;;;;4995586;28;20133;-77
2020/12/25 02:29:31;;;;;;;15.48;7.78;;;5.00;99.90;;;;;;4995634;28;20449;-78
2020/12/25 02:31:57;;;;;;;15.13;6.55;;;5.00;99.90;;;;;;4999112;28;20085;-78
2020/12/25 02:34:23;;;;;;;13.07;7.10;;;5.00;99.90;;;;;;5003123;28;20089;-78
2020/12/25 02:36:50;;;;;;;12.80;6.40;;;5.00;99.90;;;;;;5001452;28;20129;-77
2020/12/25 02:39:17;;;;;;;15.57;7.10;;;4.90;99.90;;;;;;5000418;28;20061;-78
2020/12/25 02:41:43;;;;;;;13.15;7.00;;;4.90;99.90;;;;;;5003567;28;20070;-78
2020/12/25 02:44:10;;;;;;;12.00;7.05;;;4.90;99.90;;;;;;5005754;28;20105;-77
2020/12/25 02:46:36;;;;;;;13.02;7.57;;;4.90;99.90;;;;;;5003021;23;20558;-79
2020/12/25 02:49:03;;;;;;;13.90;7.90;;;5.00;99.90;;;;;;4984179;28;20074;-81
2020/12/25 02:51:29;;;;;;;17.40;8.10;;;4.90;99.90;;;;;;4984161;28;20090;-79
2020/12/25 02:53:55;;;;;;;14.20;8.20;;;5.00;99.90;;;;;;4984338;28;20043;-79
2020/12/25 02:56:23;;;;;;;17.20;9.10;;;5.10;99.90;;;;;;4982492;28;20085;-80
2020/12/25 02:58:49;;;;;;;19.35;10.00;;;5.00;99.90;;;;;;4988437;28;20062;-79
2020/12/25 03:01:16;;;;;;;15.90;8.25;;;5.00;99.90;;;;;;4989316;28;20078;-80
2020/12/25 03:03:43;;;;;;;15.60;9.20;;;5.00;99.90;;;;;;4989028;28;20047;-80
2020/12/25 03:06:10;;;;;;;20.73;9.27;;;5.00;99.90;;;;;;4989716;28;20077;-79
2020/12/25 03:08:37;;;;;;;20.58;9.18;;;4.90;99.90;;;;;;4988886;28;20055;-79
2020/12/25 03:11:04;;;;;;;20.48;8.90;;;4.80;99.90;;;;;;4988473;28;20051;-78
2020/12/25 03:13:32;;;;;;;14.38;8.95;;;4.80;99.90;;;;;;4987027;28;20085;-80
2020/12/25 03:15:59;;;;;;;13.63;8.40;;;4.70;99.90;;;;;;4987315;28;20082;-80
2020/12/25 03:18:26;;;;;;;21.80;8.52;;;4.70;99.90;;;;;;4984957;28;20054;-80
2020/12/25 03:20:52;;;;;;;15.45;7.10;;;4.70;99.90;;;;;;4979313;28;20070;-80
2020/12/25 03:23:19;;;;;;;14.35;7.75;;;4.70;99.90;;;;;;4978333;28;20158;-79
2020/12/25 03:25:45;;;;;;;15.55;7.03;;;4.80;99.90;;;;;;4988791;28;20089;-81
2020/12/25 03:28:11;;;;;;;13.63;6.80;;;4.70;99.90;;;;;;4987942;28;20117;-80
2020/12/25 03:30:39;;;;;;;10.65;6.35;;;4.70;99.90;;;;;;4982949;28;20511;-80
2020/12/25 03:33:05;;;;;;;15.05;6.57;;;4.70;99.90;;;;;;4982504;28;20051;-80
2020/12/25 03:35:32;;;;;;;13.60;5.93;;;4.70;99.90;;;;;;4984149;28;20054;-80
2020/12/25 03:37:58;;;;;;;12.68;5.80;;;4.80;99.90;;;;;;4987396;28;20074;-80
2020/12/25 03:40:24;;;;;;;11.45;5.03;;;4.80;99.90;;;;;;4984954;28;20086;-79
2020/12/25 03:42:51;;;;;;;11.02;4.68;;;4.80;99.90;;;;;;4985303;28;20062;-79
2020/12/25 03:45:17;;;;;;;13.68;4.93;;;4.80;99.90;;;;;;4984417;28;20170;-79
2020/12/25 03:47:44;;;;;;;13.98;4.93;;;4.80;99.90;;;;;;4983616;28;20093;-79
2020/12/25 03:50:11;;;;;;;13.93;6.15;;;4.80;99.90;;;;;;4984235;28;20090;-79
2020/12/25 03:52:37;;;;;;;12.07;5.05;;;4.70;99.90;;;;;;4982584;28;20577;-79
2020/12/25 03:55:04;;;;;;;16.02;5.68;;;4.80;99.90;;;;;;4982735;28;20054;-79
2020/12/25 03:57:30;;;;;;;14.95;6.68;;;4.80;99.90;;;;;;4982168;28;20054;-78
2020/12/25 03:59:56;;;;;;;20.45;7.43;;;4.80;99.90;;;;;;4986306;28;20082;-79
2020/12/25 04:02:23;;;;;;;14.93;7.55;;;4.80;99.90;;;;;;4986679;28;20095;-80
2020/12/25 04:04:50;;;;;;;17.42;7.57;;;4.80;99.90;;;;;;4988104;28;20086;-79
2020/12/25 04:07:17;;;;;;;16.80;8.20;;;4.70;99.90;;;;;;4984472;28;20087;-79
2020/12/25 04:09:43;;;;;;;20.02;8.50;;;4.70;99.90;;;;;;4983034;28;20542;-79
2020/12/25 04:12:09;;;;;;;19.65;9.20;;;4.60;99.90;;;;;;4981532;28;20086;-79
2020/12/25 04:14:36;;;;;;;17.75;9.00;;;4.60;99.90;;;;;;4981354;28;20071;-79
2020/12/25 04:17:02;;;;;;;17.13;8.85;;;4.70;99.90;;;;;;4986910;28;20054;-78
2020/12/25 04:19:28;;;;;;;18.63;8.68;;;4.70;99.90;;;;;;4994148;28;20170;-79
2020/12/25 04:21:56;;;;;;;13.93;8.43;;;4.60;99.90;;;;;;4990948;28;20108;-78
2020/12/25 04:24:22;;;;;;;16.45;8.50;;;4.60;99.90;;;;;;4985869;28;20109;-79
2020/12/25 04:26:48;;;;;;;17.50;10.68;;;4.70;99.90;;;;;;4980681;28;20082;-78
2020/12/25 04:29:15;;;;;;;17.92;7.72;;;4.60;99.90;;;;;;4984398;28;20090;-79
2020/12/25 04:31:41;;;;;;;13.60;7.38;;;4.50;99.90;;;;;;4983134;28;20505;-79
2020/12/25 04:34:08;;;;;;;21.83;8.02;;;4.50;99.90;;;;;;4985617;28;20074;-78
2020/12/25 04:36:34;;;;;;;16.50;7.57;;;4.50;99.90;;;;;;4993165;28;20063;-80
2020/12/25 04:39:02;;;;;;;16.15;6.68;;;4.40;99.90;;;;;;4996344;28;20059;-79
2020/12/25 04:41:30;;;;;;;24.85;7.22;;;4.40;99.90;;;;;;4990223;28;20051;-78
2020/12/25 04:43:58;;;;;;;9.88;6.10;;;4.30;99.90;;;;;;4980643;28;20047;-78
2020/12/25 04:46:25;;;;;;;19.35;6.22;;;4.30;99.90;;;;;;4979214;28;20138;-78
2020/12/25 04:48:51;;;;;;;19.02;6.50;;;4.20;99.90;;;;;;4977119;28;20137;-78
2020/12/25 04:51:18;;;;;;;17.85;5.93;;;4.20;99.90;;;;;;4976151;28;20129;-78
2020/12/25 04:53:49;;;;;;;17.13;5.90;;;4.20;99.90;;;;;;4976511;28;20055;-79
2020/12/25 04:56:17;;;;;;;15.88;5.72;;;4.10;99.90;;;;;;4977621;28;20074;-79
2020/12/25 04:58:44;;;;;;;18.58;6.03;;;4.10;99.90;;;;;;4980597;28;20125;-79
2020/12/25 05:01:11;;;;;;;12.73;5.93;;;4.00;99.90;;;;;;4982822;28;20070;-79
2020/12/25 05:03:38;;;;;;;15.07;5.40;;;4.00;99.90;;;;;;4981425;28;20054;-78
2020/12/25 05:06:06;;;;;;;13.65;5.15;;;3.80;99.90;;;;;;4982518;28;20058;-79
2020/12/25 05:08:40;;;;;;;14.48;5.13;;;3.80;99.90;;;;;;4982405;28;20062;-79
2020/12/25 05:11:09;;;;;;;17.80;5.00;;;3.80;99.90;;;;;;4982073;28;20074;-78
2020/12/25 05:13:44;;;;;;;14.07;5.32;;;3.70;99.90;;;;;;4978055;28;20046;-77
2020/12/25 05:16:11;;;;;;;15.80;6.35;;;3.70;99.90;;;;;;4979064;28;20396;-79
2020/12/25 05:18:41;;;;;;;15.95;4.80;;;3.60;99.90;;;;;;4983027;28;20062;-79
2020/12/25 05:21:10;;;;;;;13.77;5.03;;;3.50;99.90;;;;;;4977811;28;20055;-78
2020/12/25 05:23:38;;;;;;;15.60;4.25;;;3.60;99.90;;;;;;4980293;28;20097;-79
2020/12/25 05:26:06;;;;;;;15.18;4.75;;;3.50;99.90;;;;;;4981833;28;20066;-79
2020/12/25 05:28:40;;;;;;;13.65;5.00;;;3.40;99.90;;;;;;4981846;28;20491;-81
2020/12/25 05:31:06;;;;;;;11.77;4.90;;;3.40;99.90;;;;;;4980124;28;20047;-77
2020/12/25 05:33:34;;;;;;;17.90;5.80;;;3.30;99.90;;;;;;4981265;28;20150;-78
2020/12/25 05:36:04;;;;;;;14.55;5.15;;;3.20;99.90;;;;;;4981006;28;20078;-78
2020/12/25 05:38:30;;;;;;;13.00;5.28;;;3.20;99.90;;;;;;4978992;28;20459;-78
2020/12/25 05:41:00;;;;;;;13.95;4.60;;;3.20;99.90;;;;;;4975557;28;20137;-77
2020/12/25 05:43:27;;;;;;;14.70;5.60;;;3.20;99.90;;;;;;4977182;28;20114;-79
2020/12/25 05:45:55;;;;;;;10.32;5.03;;;3.20;99.90;;;;;;4961385;28;20079;-77
2020/12/25 05:48:21;;;;;;;13.85;5.38;;;3.20;99.90;;;;;;4973164;28;20050;-78
2020/12/25 05:50:48;;;;;;;15.52;5.45;;;3.10;99.90;;;;;;4974807;28;20053;-77
2020/12/25 05:53:14;;;;;;;16.48;5.43;;;3.10;99.90;;;;;;4972304;28;20582;-78
2020/12/25 05:55:41;;;;;;;11.50;5.32;;;3.00;99.90;;;;;;4973128;28;20134;-76
2020/12/25 05:58:12;;;;;;;18.50;5.78;;;3.00;99.90;;;;;;4974604;28;20058;-78
2020/12/25 06:00:40;;;;;;;17.33;6.70;;;3.00;99.90;;;;;;4979103;28;20074;-78
2020/12/25 06:03:11;;;;;;;19.33;7.07;;;2.80;99.90;;;;;;4974571;28;20066;-78
2020/12/25 06:05:40;;;;;;;20.42;5.55;;;2.80;99.90;;;;;;4973857;28;20054;-79
2020/12/25 06:08:16;;;;;;;14.90;5.68;;;2.80;99.90;;;;;;4975665;28;20058;-78
2020/12/25 06:10:44;;;;;;;18.48;5.85;;;2.80;99.90;;;;;;4974749;28;20058;-79
2020/12/25 06:13:13;;;;;;;22.05;6.10;;;2.80;99.90;;;;;;4975642;28;20055;-78
2020/12/25 06:15:46;;;;;;;14.23;5.18;;;2.70;99.90;;;;;;4969019;28;20133;-78
2020/12/25 06:18:26;;;;;;;18.13;5.47;;;2.70;99.90;;;;;;4970796;28;20078;-75
2020/12/25 06:20:59;;;;;;;14.60;5.55;;;2.60;99.90;;;;;;4971454;28;20051;-78
2020/12/25 06:23:29;;;;;;;21.85;6.38;;;2.60;99.90;;;;;;4973448;28;20435;-76
2020/12/25 06:25:55;;;;;;;18.67;5.75;;;2.60;99.90;;;;;;4955122;28;20528;-78
2020/12/25 06:28:22;;;;;;;19.20;5.70;;;2.60;99.90;;;;;;4955379;28;20132;-77
2020/12/25 06:30:48;;;;;;;24.02;6.57;;;2.60;99.90;;;;;;4971956;28;20455;-78
2020/12/25 06:33:16;;;;;;;21.75;5.60;;;2.70;99.90;;;;;;4973445;28;20074;-79
2020/12/25 06:35:46;;;;;;;18.90;6.32;;;2.70;99.90;;;;;;4971480;28;20558;-77
2020/12/25 06:38:14;;;;;;;20.50;6.80;;;2.70;99.90;;;;;;4980845;28;20046;-78
2020/12/25 06:40:40;;;;;;;25.85;6.40;;;2.80;99.90;;;;;;4974591;28;20090;-77
2020/12/25 06:43:16;;;;;;;16.05;5.32;;;2.70;99.90;;;;;;4973949;28;20463;-78
2020/12/25 06:45:44;;;;;;;19.83;6.38;;;2.80;99.90;;;;;;4973819;28;20519;-77
2020/12/25 06:48:12;;;;;;;17.35;6.38;;;2.80;99.90;;;;;;4974359;28;20142;-76
2020/12/25 06:50:51;;;;;;;17.55;5.55;;;2.80;99.90;;;;;;4971834;28;20046;-78
2020/12/25 06:53:37;;;;;;;17.20;5.18;;;2.90;99.90;;;;;;4964329;28;20039;-78
2020/12/25 06:56:15;;;;;;;19.23;5.28;;;2.90;99.90;;;;;;4974692;28;20046;-79
2020/12/25 06:58:44;;;;;;;16.33;6.10;;;2.90;99.90;;;;;;4971691;28;20574;-79
2020/12/25 07:01:11;;;;;;;17.00;6.78;;;2.90;99.90;;;;;;4975632;28;20106;-78
2020/12/25 07:03:38;;;;;;;17.58;5.97;;;2.90;99.90;;;;;;4976276;28;20102;-78
2020/12/25 07:06:08;;;;;;;16.77;6.00;;;2.80;99.90;;;;;;4975790;28;20055;-78
2020/12/25 07:08:40;;;;;;;17.73;6.18;;;2.90;99.90;;;;;;4975686;28;20142;-78
2020/12/25 07:11:07;;;;;;;15.85;6.18;;;2.80;99.90;;;;;;4974742;28;20535;-77
2020/12/25 07:13:35;;;;;;;14.25;5.82;;;2.80;99.90;;;;;;4977433;28;20043;-78
2020/12/25 07:16:02;;;;;;;17.35;5.38;;;2.80;99.90;;;;;;4980370;28;20093;-78
2020/12/25 07:18:29;;;;;;;19.60;5.63;;;2.80;99.90;;;;;;4983085;28;20470;-78
2020/12/25 07:20:56;;;;;;;19.92;6.53;;;2.80;99.90;;;;;;4974976;28;20714;-78
2020/12/25 07:23:24;;;;;;;16.20;5.95;;;2.80;99.90;;;;;;4976693;28;20070;-78
2020/12/25 07:25:51;;;;;;;17.75;6.30;;;2.90;99.90;;;;;;4977842;28;20092;-78
2020/12/25 07:28:23;;;;;;;19.13;6.30;;;2.90;99.90;;;;;;4975862;28;20134;-78
2020/12/25 07:30:50;;;;;;;15.25;5.93;;;3.00;99.90;;;;;;4977159;28;20054;-79
2020/12/25 07:33:16;;;;;;;16.48;6.13;;;2.90;99.90;;;;;;4978083;28;20107;-78
2020/12/25 07:35:43;;;;;;;17.00;7.32;;;2.90;99.90;;;;;;4978918;28;20046;-78
2020/12/25 07:38:11;;;;;;;15.63;6.25;;;3.00;99.90;;;;;;4978634;28;20155;-79
2020/12/25 07:40:39;;;;;;;17.52;6.78;;;3.00;99.90;;;;;;4982000;28;20082;-79
2020/12/25 07:43:05;;;;;;;17.08;5.88;;;3.10;99.90;;;;;;4982348;28;20106;-78
2020/12/25 07:45:36;;;;;;;15.23;6.30;;;3.10;99.90;;;;;;4983321;28;20141;-79
2020/12/25 07:48:03;;;;;;;13.18;5.38;;;3.20;99.90;;;;;;4985427;28;20069;-77
2020/12/25 07:50:38;;;;;;;15.27;5.55;;;3.20;99.90;;;;;;4983412;28;20566;-78
2020/12/25 07:53:12;;;;;;;16.63;5.15;;;3.30;99.90;;;;;;4978599;28;20155;-78
2020/12/25 07:55:44;;;;;;;19.23;5.15;;;3.30;99.90;;;;;;4980478;28;20315;-78
2020/12/25 07:58:11;;;;;;;17.33;5.30;;;3.30;99.90;;;;;;4981230;28;20061;-78
2020/12/25 08:00:37;;;;;;;10.27;4.88;;;3.40;99.90;;;;;;4980790;28;20078;-78
2020/12/25 08:03:05;;;;;;;12.05;4.75;;;3.40;99.90;;;;;;4980173;28;20078;-78
2020/12/25 08:05:31;;;;;;;16.17;5.35;;;3.50;99.90;;;;;;4978384;28;20129;-78
2020/12/25 08:08:00;;;;;;;10.90;4.57;;;3.50;99.90;;;;;;4979584;28;20129;-79
2020/12/25 08:10:26;;;;;;;16.30;4.70;;;3.50;99.90;;;;;;4981055;28;20066;-79
2020/12/25 08:12:57;;;;;;;14.57;4.57;;;3.60;99.90;;;;;;4986119;28;20055;-79
2020/12/25 08:15:24;;;;;;;12.20;4.50;;;3.60;99.90;;;;;;4984692;28;20078;-79
2020/12/25 08:17:52;;;;;;;14.20;5.68;;;3.70;99.90;;;;;;4984830;28;20156;-79
2020/12/25 08:20:18;;;;;;;13.88;4.20;;;3.70;99.90;;;;;;4985081;28;20482;-79
2020/12/25 08:22:45;;;;;;;11.88;4.10;;;3.70;99.90;;;;;;4982243;28;20144;-79
2020/12/25 08:25:11;;;;;;;19.98;4.47;;;3.80;99.90;;;;;;4981982;28;20156;-79
2020/12/25 08:27:37;;;;;;;14.38;4.60;;;3.80;99.90;;;;;;4981263;28;20134;-79
2020/12/25 08:30:06;;;;;;;10.88;4.53;;;3.80;99.90;;;;;;4982082;28;20097;-79
2020/12/25 08:32:33;;;;;;;17.17;4.70;;;3.80;99.90;;;;;;4982056;28;20142;-79
2020/12/25 08:35:14;;;;;;;16.80;4.60;;;3.80;99.90;;;;;;4980422;28;20109;-78
2020/12/25 08:37:51;;;;;;;11.32;4.35;;;3.80;99.90;;;;;;4980681;28;20058;-78
2020/12/25 08:40:18;;;;;;;14.23;5.72;;;3.70;99.90;;;;;;4981195;28;20224;-79
2020/12/25 08:42:44;;;;;;;14.63;4.53;;;3.70;99.90;;;;;;4976755;28;20050;-79
2020/12/25 08:48:10;;;;;;;12.68;4.75;;;3.60;99.90;;;;;;4970989;28;20098;-80
2020/12/25 08:50:37;;;;;;;13.45;4.60;;;3.60;99.90;;;;;;4976852;28;20404;-80
2020/12/25 08:53:11;;;;;;;6.57;4.10;;;3.60;99.90;;;;;;4977641;28;20134;-80
2020/12/25 08:55:37;;;;;;;9.60;4.10;;;3.50;99.90;;;;;;4978094;28;20135;-80
2020/12/25 08:58:04;;;;;;;8.95;4.68;;;3.50;99.90;;;;;;4978121;28;20058;-80
2020/12/25 09:00:30;;;;;;;9.50;4.07;;;3.50;99.90;;;;;;4976999;28;20058;-79
2020/12/25 09:02:57;;;;;;;9.35;4.10;;;3.50;99.90;;;;;;4975969;28;20207;-80
2020/12/25 09:05:24;;;;;;;14.02;4.32;;;3.60;99.90;;;;;;4976119;28;20503;-78
2020/12/25 09:07:51;;;;;;;9.27;4.68;;;3.60;99.90;;;;;;4974821;28;20476;-79
2020/12/25 09:10:18;;;;;;;14.27;4.22;;;3.60;99.90;;;;;;4973526;28;20575;-77
2020/12/25 09:12:44;;;;;;;8.43;4.03;;;3.70;99.90;;;;;;4973924;28;20054;-78
2020/12/25 09:15:10;;;;;;;15.18;5.13;;;3.70;99.90;;;;;;4970646;28;20050;-78
2020/12/25 09:17:37;;;;;;;14.13;4.72;;;3.70;99.90;;;;;;4974360;28;20114;-79
2020/12/25 09:20:03;;;;;;;15.93;4.20;;;3.80;99.90;;;;;;4974506;28;20177;-78
2020/12/25 09:22:31;;;;;;;9.95;4.68;;;3.80;99.90;;;;;;4978229;28;20486;-79
2020/12/25 09:24:57;;;;;;;14.02;4.45;;;3.80;99.90;;;;;;4974595;28;20129;-78
2020/12/25 09:27:24;;;;;;;9.02;4.22;;;3.80;99.90;;;;;;4974519;28;20528;-78
2020/12/25 09:29:50;;;;;;;13.50;4.35;;;3.70;99.90;;;;;;4974780;28;20130;-78
2020/12/25 09:32:16;;;;;;;11.60;4.88;;;3.80;99.90;;;;;;4974338;28;20193;-79
2020/12/25 09:34:43;;;;;;;13.50;4.68;;;3.70;99.90;;;;;;4975073;28;20086;-77
2020/12/25 09:37:09;;;;;;;9.48;4.78;;;3.70;99.90;;;;;;4974269;28;20133;-78
2020/12/25 09:39:36;;;;;;;9.63;5.10;;;3.70;99.90;;;;;;4974463;28;20093;-77
2020/12/25 09:42:03;;;;;;;15.27;4.93;;;3.70;99.90;;;;;;4973963;28;20054;-77
2020/12/25 09:44:30;;;;;;;14.00;5.13;;;3.70;99.90;;;;;;4973520;28;20051;-78
2020/12/25 09:46:56;;;;;;;14.93;5.10;;;3.80;99.90;;;;;;4974336;28;20130;-78
2020/12/25 09:49:22;;;;;;;8.88;4.80;;;3.90;99.90;;;;;;4973967;28;20047;-78
2020/12/25 09:51:49;;;;;;;18.05;5.40;;;3.90;99.90;;;;;;4973830;28;20133;-78
2020/12/25 09:54:15;;;;;;;9.55;4.50;;;4.00;99.90;;;;;;4975491;28;20396;-79
2020/12/25 09:56:42;;;;;;;16.08;6.00;;;4.10;99.90;;;;;;4978105;28;20090;-79
2020/12/25 09:59:09;;;;;;;9.77;5.03;;;4.20;99.90;;;;;;4977534;28;20062;-78
2020/12/25 10:01:35;;;;;;;12.75;5.47;;;4.30;99.90;;;;;;4977470;28;20078;-79
2020/12/25 10:04:01;;;;;;;13.77;6.30;;;4.30;99.90;;;;;;4976963;28;20326;-78
2020/12/25 10:06:28;;;;;;;12.02;4.85;;;4.40;99.90;;;;;;4975324;28;20047;-80
2020/12/25 10:08:54;;;;;;;8.77;5.00;;;4.40;99.90;;;;;;4974689;28;20094;-79
2020/12/25 10:11:21;;;;;;;7.85;4.25;;;4.50;99.90;;;;;;4974701;28;20138;-79
2020/12/25 10:13:48;;;;;;;11.35;5.00;;;4.70;99.90;;;;;;4976968;28;20043;-79
2020/12/25 10:16:15;;;;;;;12.30;5.45;;;4.80;99.90;;;;;;4976218;28;20146;-78
2020/12/25 10:18:41;;;;;;;14.35;4.95;;;5.00;99.90;;;;;;4977165;28;20046;-79
2020/12/25 10:21:08;;;;;;;13.05;4.80;;;5.10;99.90;;;;;;4976193;28;20133;-78
2020/12/25 10:23:34;;;;;;;12.15;5.03;;;5.20;99.90;;;;;;4975565;28;20129;-79
2020/12/25 10:26:01;;;;;;;9.75;4.43;;;5.20;99.90;;;;;;4975451;28;20133;-80
2020/12/25 10:28:27;;;;;;;8.98;4.45;;;5.30;99.90;;;;;;4976250;28;20141;-78
2020/12/25 10:30:54;;;;;;;14.48;4.20;;;5.30;99.90;;;;;;4976912;28;20139;-78
2020/12/25 10:33:21;;;;;;;8.60;4.10;;;5.30;99.90;;;;;;4976225;28;20106;-79
2020/12/25 10:35:47;;;;;;;10.05;4.40;;;5.30;99.90;;;;;;4976546;28;20078;-78
2020/12/25 10:38:13;;;;;;;8.32;4.13;;;5.30;99.90;;;;;;4977102;28;20137;-79
2020/12/25 10:40:40;;;;;;;12.07;4.75;;;5.40;99.90;;;;;;4977286;28;20093;-78
2020/12/25 10:43:06;;;;;;;9.05;4.00;;;5.50;99.90;;;;;;4973835;28;20133;-77
2020/12/25 10:45:33;;;;;;;10.13;4.60;;;5.50;99.90;;;;;;4973607;28;20074;-78
2020/12/25 10:48:00;;;;;;;11.40;4.25;;;5.50;99.90;;;;;;4973870;28;20082;-78
2020/12/25 10:50:26;;;;;;;5.60;3.92;;;5.60;99.90;;;;;;4973416;28;20498;-78
2020/12/25 10:52:54;;;;;;;9.90;3.70;;;5.60;99.90;;;;;;4973223;28;20137;-77
2020/12/25 10:55:21;;;;;;;12.48;4.22;;;5.70;99.90;;;;;;4973482;28;20047;-77
2020/12/25 10:57:47;;;;;;;11.73;3.90;;;5.70;99.90;;;;;;4974508;28;20478;-78
2020/12/25 11:00:14;;;;;;;8.68;4.00;;;5.70;99.90;;;;;;4972023;28;20078;-78
2020/12/25 11:02:40;;;;;;;9.48;3.83;;;5.70;99.90;;;;;;4936102;29;20055;-77
2020/12/25 11:05:07;;;;;;;10.77;3.65;;;5.60;99.90;;;;;;4935447;29;20134;-78
2020/12/25 11:07:34;;;;;;;8.93;3.78;;;5.60;99.90;;;;;;4935954;28;20134;-78
2020/12/25 11:10:00;;;;;;;6.57;3.55;;;5.60;99.90;;;;;;4955221;28;20051;-79
2020/12/25 11:12:27;;;;;;;12.23;4.30;;;5.50;99.90;;;;;;4956873;28;20079;-79
2020/12/25 11:14:53;;;;;;;10.85;4.55;;;5.50;99.90;;;;;;4961715;29;20075;-78
2020/12/25 11:17:20;;;;;;;10.15;4.88;;;5.40;99.90;;;;;;4961031;28;20565;-79
2020/12/25 11:19:47;;;;;;;10.93;4.03;;;5.30;99.90;;;;;;4961152;28;20083;-80
2020/12/25 11:22:15;;;;;;;13.10;4.32;;;5.30;99.90;;;;;;4961278;28;20058;-80
2020/12/25 11:24:42;;;;;;;11.00;4.07;;;5.30;99.90;;;;;;4960838;28;20058;-80
2020/12/25 11:27:12;;;;;;;11.30;4.53;;;5.30;99.90;;;;;;4966605;28;20090;-77
2020/12/25 11:29:39;;;;;;;9.07;3.35;;;5.40;99.90;;;;;;4965126;29;20059;-79
2020/12/25 11:32:05;;;;;;;10.98;4.10;;;5.50;99.90;;;;;;4948798;28;20520;-80
2020/12/25 11:34:32;;;;;;;11.55;3.50;;;5.60;99.90;;;;;;4938292;29;20044;-79
2020/12/25 11:36:58;;;;;;;12.32;4.88;;;5.80;99.90;;;;;;4946862;29;20058;-81
2020/12/25 11:39:25;;;;;;;13.95;4.07;;;5.80;99.90;;;;;;4938818;29;20134;-78
2020/12/25 11:41:52;;;;;;;11.85;3.72;;;5.70;99.90;;;;;;4942269;29;20134;-81
2020/12/25 11:44:18;;;;;;;12.40;3.80;;;5.80;99.90;;;;;;4940060;29;20149;-80
2020/12/25 11:46:45;;;;;;;10.65;3.42;;;5.90;99.90;;;;;;4942530;29;20048;-81
2020/12/25 11:49:11;;;;;;;12.48;4.00;;;5.90;99.90;;;;;;4943322;29;20056;-81
2020/12/25 11:51:38;;;;;;;14.82;6.57;;;5.90;99.90;;;;;;4945634;29;20102;-81
2020/12/25 11:54:04;;;;;;;13.07;3.50;;;5.90;99.90;;;;;;4943475;29;20044;-81
2020/12/25 11:56:31;;;;;;;7.93;3.70;;;5.90;99.90;;;;;;4942619;29;20093;-81
2020/12/25 11:58:58;;;;;;;15.70;3.15;;;6.00;99.90;;;;;;4949109;29;20058;-82
2020/12/25 12:01:24;;;;;;;14.00;4.45;;;6.10;99.90;;;;;;4948209;29;20378;-82
2020/12/25 12:03:51;;;;;;;11.63;3.92;;;6.10;99.90;;;;;;4958210;28;20071;-80
2020/12/25 12:06:21;;;;;;;13.93;4.45;;;6.20;99.90;;;;;;4946245;29;20591;-83
2020/12/25 12:08:48;;;;;;;8.65;3.90;;;6.20;99.90;;;;;;4949030;29;20099;-81
2020/12/25 12:11:14;;;;;;;8.68;3.65;;;6.20;99.90;;;;;;4944000;28;20130;-82
2020/12/25 12:13:42;;;;;;;11.15;3.70;;;6.20;99.90;;;;;;4946212;29;20044;-82
2020/12/25 12:16:13;;;;;;;9.25;3.17;;;6.20;99.90;;;;;;4952720;29;20570;-83
2020/12/25 12:18:40;;;;;;;8.30;3.40;;;6.20;99.90;;;;;;4955656;29;20082;-82
2020/12/25 12:21:08;;;;;;;12.70;3.72;;;6.20;99.90;;;;;;4956149;29;20106;-82
2020/12/25 12:23:35;;;;;;;13.25;3.70;;;6.10;99.90;;;;;;4952164;28;20103;-81
2020/12/25 12:26:01;;;;;;;13.38;3.70;;;6.00;99.90;;;;;;4956810;29;20048;-82
2020/12/25 12:28:28;;;;;;;6.93;3.17;;;6.00;99.90;;;;;;4946119;29;20075;-82
2020/12/25 12:30:55;;;;;;;11.02;3.25;;;6.00;99.90;;;;;;4955465;28;20427;-82
2020/12/25 12:33:22;;;;;;;9.27;3.33;;;6.10;99.90;;;;;;4957898;29;20048;-82
2020/12/25 12:35:48;;;;;;;8.27;3.63;;;6.10;99.90;;;;;;4951628;29;20052;-82
2020/12/25 12:38:15;;;;;;;9.90;3.53;;;6.20;99.90;;;;;;4948671;28;20062;-81
2020/12/25 12:40:41;;;;;;;9.13;3.35;;;6.20;99.90;;;;;;4952637;28;20055;-81
2020/12/25 12:43:08;;;;;;;10.57;3.40;;;6.20;99.90;;;;;;4950162;28;20078;-82
2020/12/25 12:45:34;;;;;;;10.45;3.35;;;6.10;99.90;;;;;;4945395;28;20131;-82
2020/12/25 12:48:02;;;;;;;14.63;4.00;;;6.00;99.90;;;;;;4951346;28;20079;-82